Latest Weather Observations for Lockhart River

IDQ60801

Issued at 12:42 pm EST Tuesday 10 December 2019 (issued every 10 minutes, with the page automatically refreshed every 10 minutes)

About weather observations | Map of weather stations | Latest weather observations for QLD | Other Formats
Station Details ID: 028008 Name: LOCKHART RIVER AIRPORT Lat: -12.79 Lon: 143.30 Height: 18.5 m
Data from the previous 72 hours. | See also: Recent months at Lockhart River
Date/Time
EST
Temp
°C
App
Temp
°C
Dew
Point
°C
Rel
Hum
%
Delta-T
°C
Wind Press
QNH
hPa
Press
MSL
hPa
Rain since
9am
mm
Dir  Spd
km/h
Gust
km/h
Spd
kts
Gust
kts
10/12:30pm 31.6 32.4 23.2 61 5.8 SE 24 37 13 20 1009.1 1009.0 0.0
10/12:00pm 32.4 32.7 23.6 59 6.1 ESE 28 39 15 21 1009.5 1009.4 0.0
10/11:30am 31.8 32.6 22.5 58 6.4 SE 22 37 12 20 1009.9 1009.8 0.0
10/11:00am 31.2 31.8 22.8 61 5.8 ESE 24 35 13 19 1010.1 1010.0 0.0
10/10:30am 30.1 31.5 23.5 67 4.6 SE 22 30 12 16 1010.6 1010.5 0.0
10/10:00am 30.6 31.7 24.3 69 4.4 SE 26 35 14 19 1010.9 1010.8 0.0
10/09:30am 30.7 30.4 22.6 62 5.5 SE 28 41 15 22 1011.1 1011.0 0.0
10/09:00am 29.8 31.2 23.5 69 4.3 ESE 22 32 12 17 1011.1 1011.0 7.4
10/08:30am 29.3 30.4 23.7 72 3.9 SE 24 33 13 18 1011.0 1010.9 7.4
10/08:00am 29.4 31.2 23.6 71 4.0 SE 20 28 11 15 1011.0 1010.9 7.4
10/07:30am 27.4 32.4 23.8 81 2.5 SSW 4 13 2 7 1010.8 1010.7 7.4
10/07:00am 25.4 30.8 23.3 88 1.4 CALM 0 0 0 0 1010.6 1010.5 7.4
10/06:30am 24.5 29.9 23.3 93 0.8 CALM 0 0 0 0 1010.1 1010.0 7.4
10/06:00am 24.6 29.8 22.8 90 1.2 CALM 0 6 0 3 1009.8 1009.7 7.4
10/05:30am 25.4 29.2 22.7 85 1.8 S 7 9 4 5 1009.6 1009.5 7.4
10/05:00am 26.6 29.5 23.1 81 2.4 SE 13 20 7 11 1009.5 1009.4 7.4
10/04:30am 26.7 30.1 23.4 82 2.3 SE 11 19 6 10 1009.5 1009.4 7.4
10/04:00am 26.8 29.8 23.3 81 2.4 SE 13 19 7 10 1009.5 1009.4 7.4
10/03:30am 26.7 30.0 23.2 81 2.4 SE 11 17 6 9 1009.5 1009.4 7.4
10/03:00am 26.7 29.7 23.4 82 2.3 SE 13 17 7 9 1009.5 1009.4 7.4
10/02:30am 26.7 29.6 23.2 81 2.4 SE 13 22 7 12 1009.7 1009.6 7.4
10/02:00am 26.7 29.7 23.4 82 2.3 SE 13 19 7 10 1010.0 1009.9 7.4
10/01:30am 26.8 29.3 23.1 80 2.5 SE 15 20 8 11 1010.5 1010.4 7.4
10/01:00am 27.1 29.2 23.1 79 2.7 SE 17 22 9 12 1010.9 1010.8 7.4
10/12:30am 27.2 29.6 23.0 78 2.9 SE 15 20 8 11 1011.2 1011.1 7.4
10/12:00am 27.2 29.1 22.8 77 3.0 SE 17 24 9 13 1011.5 1011.4 7.4
 
Date/Time
EST
Temp
°C
App
Temp
°C
Dew
Point
°C
Rel
Hum
%
Delta-T
°C
Wind Press
QNH
hPa
Press
MSL
hPa
Rain since
9am
mm
Dir  Spd
km/h
Gust
km/h
Spd
kts
Gust
kts
09/11:30pm 27.2 29.4 22.6 76 3.1 SE 15 24 8 13 1011.9 1011.8 7.4
09/11:00pm 27.5 29.5 22.9 76 3.1 SE 17 24 9 13 1012.1 1012.0 7.4
09/10:30pm 27.6 29.9 22.8 75 3.3 SE 15 22 8 12 1012.2 1012.1 7.4
09/10:00pm 27.6 28.6 22.1 72 3.7 SE 20 28 11 15 1012.1 1012.0 7.4
09/09:30pm 27.6 28.5 21.9 71 3.8 SE 20 30 11 16 1012.2 1012.1 7.4
09/09:00pm 27.6 28.5 21.6 70 4.0 SE 19 26 10 14 1012.1 1012.0 7.4
09/08:30pm 27.7 27.7 21.7 70 4.0 SE 24 35 13 19 1011.9 1011.8 7.4
09/08:00pm 27.7 28.7 22.2 72 3.7 ESE 20 28 11 15 1011.7 1011.6 7.4
09/07:30pm 27.6 28.9 22.3 73 3.6 ESE 19 32 10 17 1011.4 1011.3 7.4
09/07:00pm 27.6 29.2 22.8 75 3.3 SE 19 26 10 14 1011.1 1011.0 7.4
09/06:30pm 27.7 29.3 22.9 75 3.3 SE 19 26 10 14 1010.9 1010.8 7.4
09/06:00pm 27.7 28.8 23.1 76 3.1 SE 22 32 12 17 1010.7 1010.6 7.4
09/05:30pm 27.2 30.0 23.7 81 2.4 SE 15 30 8 16 1010.6 1010.5 7.4
09/05:08pm 26.4 29.5 24.8 91 1.1 SE 17 28 9 15 1010.6 1010.5 7.4
09/05:05pm 26.3 28.8 24.5 90 1.2 ESE 19 33 10 18 1010.5 1010.4 7.4
09/05:00pm 25.9 27.9 23.9 89 1.4 ESE 20 33 11 18 1010.5 1010.4 7.2
09/04:50pm 25.4 26.8 23.6 90 1.2 E 22 37 12 20 1010.6 1010.5 6.6
09/04:38pm 25.3 24.9 22.4 84 1.9 ESE 28 37 15 20 1010.5 1010.4 2.0
09/04:30pm 28.7 28.7 22.4 68 4.3 SE 26 35 14 19 1010.4 1010.3 0.0
09/04:00pm 29.4 29.6 22.1 65 4.9 ESE 24 33 13 18 1010.3 1010.2 0.0
09/03:30pm 29.3 29.2 22.3 66 4.7 ESE 26 44 14 24 1010.2 1010.1 0.0
09/03:11pm 29.7 29.5 22.7 66 4.8 ESE 28 46 15 25 1010.3 1010.2 0.0
09/03:00pm 29.2 28.6 21.9 64 4.9 ESE 28 44 15 24 1010.3 1010.2 0.0
09/02:30pm 29.9 30.6 22.9 66 4.8 ESE 24 37 13 20 1010.6 1010.5 0.0
09/02:00pm 30.5 30.5 22.4 62 5.5 ESE 26 35 14 19 1010.8 1010.7 0.0
09/01:30pm 30.8 29.9 22.1 59 5.9 ESE 30 41 16 22 1011.1 1011.0 0.0
09/01:00pm 31.0 31.2 23.4 64 5.2 E 28 44 15 24 1011.4 1011.3 0.0
09/12:30pm 31.0 30.6 22.3 60 5.9 ESE 28 41 15 22 1011.5 1011.4 0.0
09/12:00pm 31.2 31.5 22.2 58 6.1 E 24 39 13 21 1011.8 1011.7 0.0
09/11:30am 31.3 31.6 22.3 58 6.1 E 24 39 13 21 1012.0 1011.9 0.0
09/11:00am 30.0 30.8 23.2 67 4.7 E 24 39 13 21 1012.2 1012.1 0.0
09/10:30am 31.0 31.5 22.6 61 5.7 ESE 24 35 13 19 1012.4 1012.3 0.0
09/10:00am 31.0 31.7 22.9 62 5.6 ESE 24 35 13 19 1012.5 1012.4 0.0
09/09:30am 30.5 30.7 22.7 63 5.3 ESE 26 39 14 21 1012.5 1012.4 0.0
09/09:00am 29.9 30.4 22.6 65 5.0 SE 24 35 13 19 1012.7 1012.6 0.0
09/08:30am 29.2 30.6 22.9 69 4.3 ESE 20 30 11 16 1012.6 1012.5 0.0
09/08:00am 29.1 29.9 23.1 70 4.1 SE 24 32 13 17 1012.5 1012.4 0.0
09/07:30am 28.6 30.0 22.8 71 3.9 SE 20 30 11 16 1012.4 1012.3 0.0
09/07:00am 27.7 31.4 23.3 77 3.0 SSE 9 13 5 7 1012.1 1012.0 0.0
09/06:30am 26.8 30.5 23.3 81 2.4 S 9 15 5 8 1011.9 1011.8 0.0
09/06:00am 27.1 30.0 23.1 79 2.7 SSE 13 19 7 10 1011.5 1011.4 0.0
09/05:30am 27.3 30.3 23.3 79 2.7 SSE 13 20 7 11 1011.0 1010.9 0.0
09/05:00am 26.6 30.1 22.9 80 2.5 SSE 9 13 5 7 1010.7 1010.6 0.0
09/04:30am 27.6 30.1 22.5 74 3.5 SE 13 20 7 11 1010.6 1010.5 0.0
09/04:00am 27.8 30.5 23.4 77 3.0 SE 15 20 8 11 1010.5 1010.4 0.0
09/03:30am 27.6 30.1 23.2 77 3.0 SSE 15 20 8 11 1010.5 1010.4 0.0
09/03:00am 27.8 30.0 23.2 76 3.1 SE 17 24 9 13 1010.5 1010.4 0.0
09/02:30am 27.8 29.6 23.2 76 3.1 SE 19 28 10 15 1010.6 1010.5 0.0
09/02:00am 27.8 29.6 23.2 76 3.1 SE 19 24 10 13 1010.8 1010.7 0.0
09/01:30am 27.8 29.8 23.0 75 3.3 SE 17 24 9 13 1011.1 1011.0 0.0
09/01:00am 27.9 30.1 23.3 76 3.1 SE 17 24 9 13 1011.6 1011.5 0.0
09/12:30am 27.9 30.5 23.3 76 3.1 SE 15 24 8 13 1011.9 1011.8 0.0
09/12:00am 27.9 29.5 22.8 74 3.5 ESE 19 30 10 16 1012.4 1012.3 0.0
 
Date/Time
EST
Temp
°C
App
Temp
°C
Dew
Point
°C
Rel
Hum
%
Delta-T
°C
Wind Press
QNH
hPa
Press
MSL
hPa
Rain since
9am
mm
Dir  Spd
km/h
Gust
km/h
Spd
kts
Gust
kts
08/11:30pm 27.9 29.6 23.1 75 3.3 SE 19 28 10 15 1012.9 1012.8 0.0
08/11:00pm 27.9 30.0 23.1 75 3.3 SE 17 22 9 12 1012.9 1012.8 0.0
08/10:30pm 27.9 29.5 22.8 74 3.5 SE 19 24 10 13 1012.7 1012.6 0.0
08/10:00pm 27.7 29.9 22.6 74 3.5 ESE 15 20 8 11 1012.6 1012.5 0.0
08/09:30pm 27.4 31.1 22.6 75 3.3 ESE 7 11 4 6 1012.3 1012.2 0.0
08/09:00pm 27.4 31.0 22.4 74 3.4 ESE 7 11 4 6 1012.1 1012.0 0.0
08/08:30pm 27.3 30.7 22.0 73 3.6 ESE 7 13 4 7 1011.9 1011.8 0.0
08/08:00pm 27.6 30.6 21.9 71 3.8 ESE 9 13 5 7 1011.6 1011.5 0.0
08/07:30pm 27.7 30.6 21.7 70 4.0 ESE 9 15 5 8 1011.4 1011.3 0.0
08/07:00pm 28.0 29.6 21.5 67 4.3 ESE 15 20 8 11 1011.2 1011.1 0.0
08/06:30pm 28.5 29.3 21.3 65 4.8 ESE 19 24 10 13 1010.8 1010.7 0.0
08/06:00pm 28.9 30.1 21.4 64 5.0 ESE 17 24 9 13 1010.4 1010.3 0.0
08/05:30pm 29.4 29.9 20.8 60 5.7 E 19 28 10 15 1010.3 1010.2 0.0
08/05:00pm 29.7 29.6 20.8 58 5.9 ESE 22 30 12 16 1010.0 1009.9 0.0
08/04:30pm 30.3 29.6 19.6 52 7.0 E 22 33 12 18 1009.8 1009.7 0.0
08/04:00pm 31.7 31.8 20.0 50 7.7 E 19 30 10 16 1009.5 1009.4 0.0
08/03:30pm 31.6 31.1 19.2 47 8.1 E 20 30 11 16 1009.5 1009.4 0.0
08/03:00pm 31.9 30.9 18.8 45 8.5 E 22 32 12 17 1009.7 1009.6 0.0
08/02:30pm 32.2 31.6 18.4 44 8.9 ENE 19 30 10 16 1009.7 1009.6 0.0
08/02:00pm 32.1 31.9 19.4 47 8.3 E 19 32 10 17 1009.9 1009.8 0.0
08/01:30pm 31.8 31.6 19.4 47 8.1 E 19 30 10 16 1010.2 1010.1 0.0
08/01:00pm 32.1 31.6 19.0 45 8.6 E 20 30 11 16 1010.5 1010.4 0.0
08/12:30pm 31.9 31.3 18.8 45 8.5 ESE 20 30 11 16 1010.9 1010.8 0.0
08/12:00pm 31.2 30.7 19.2 48 7.8 ESE 20 30 11 16 1011.4 1011.3 0.0
08/11:30am 31.6 31.1 19.2 47 8.1 ESE 20 28 11 15 1011.7 1011.6 0.0
08/11:00am 31.2 30.9 19.2 48 7.8 ESE 19 32 10 17 1012.3 1012.2 0.0
08/10:30am 30.8 31.5 20.4 54 6.9 ESE 17 30 9 16 1012.6 1012.5 0.0
08/10:00am 31.1 31.7 19.4 49 7.7 ESE 15 20 8 11 1012.8 1012.7 0.0
08/09:30am 29.3 29.7 19.9 57 6.2 ESE 17 26 9 14 1012.9 1012.8 0.0
08/09:00am 30.4 32.1 20.9 57 6.3 ESE 13 20 7 11 1012.9 1012.8 0.2
08/08:30am 29.3 30.4 20.5 59 5.8 SE 15 24 8 13 1012.9 1012.8 0.2
08/08:00am 28.2 31.7 22.2 70 4.0 SSE 7 11 4 6 1012.8 1012.7 0.2
08/07:30am 26.2 31.2 22.5 80 2.5 CALM 0 0 0 0 1012.5 1012.4 0.2
08/07:00am 23.8 28.5 21.9 89 1.3 CALM 0 0 0 0 1012.3 1012.2 0.2
08/06:30am 22.2 26.6 21.4 95 0.5 CALM 0 0 0 0 1012.0 1011.9 0.2
08/06:00am 21.7 25.9 20.9 95 0.5 CALM 0 0 0 0 1011.6 1011.5 0.2
08/05:30am 21.8 25.9 20.8 94 0.6 CALM 0 0 0 0 1011.3 1011.2 0.2
08/05:00am 22.2 26.5 21.2 94 0.7 CALM 0 0 0 0 1011.1 1011.0 0.2
08/04:30am 22.5 26.9 21.3 93 0.8 CALM 0 0 0 0 1010.8 1010.7 0.2
08/04:00am 22.9 27.4 21.5 92 0.9 CALM 0 0 0 0 1010.5 1010.4 0.2
08/03:30am 23.1 27.6 21.5 91 1.1 CALM 0 0 0 0 1010.5 1010.4 0.2
08/03:00am 23.9 28.6 22.0 89 1.3 CALM 0 0 0 0 1010.5 1010.4 0.2
08/02:30am 23.8 28.6 22.1 90 1.1 CALM 0 0 0 0 1010.5 1010.4 0.2
08/02:00am 24.0 28.3 21.9 88 1.4 N 2 13 1 7 1010.7 1010.6 0.2
08/01:30am 24.4 29.3 22.3 88 1.4 CALM 0 0 0 0 1010.9 1010.8 0.2
08/01:00am 24.6 29.5 22.3 87 1.5 CALM 0 0 0 0 1011.4 1011.3 0.2
08/12:30am 24.8 29.7 22.3 86 1.7 CALM 0 0 0 0 1011.5 1011.4 0.0
08/12:00am 24.8 28.5 22.3 86 1.7 N 6 7 3 4 1011.9 1011.8 0.0
 
Date/Time
EST
Temp
°C
App
Temp
°C
Dew
Point
°C
Rel
Hum
%
Delta-T
°C
Wind Press
QNH
hPa
Press
MSL
hPa
Rain since
9am
mm
Dir  Spd
km/h
Gust
km/h
Spd
kts
Gust
kts
07/11:30pm 24.9 29.5 22.4 86 1.7 NNW 2 9 1 5 1012.2 1012.1 0.0
07/11:00pm 25.0 30.0 22.5 86 1.7 CALM 0 0 0 0 1012.3 1012.2 0.0
07/10:30pm 25.1 29.8 22.0 83 2.1 CALM 0 0 0 0 1012.1 1012.0 0.0
07/10:00pm 25.3 29.8 22.2 83 2.1 N 2 6 1 3 1011.7 1011.6 0.0
07/09:30pm 25.8 29.5 22.5 82 2.2 WNW 7 11 4 6 1011.8 1011.7 0.0
07/09:00pm 25.8 30.7 22.3 81 2.4 CALM 0 0 0 0 1011.5 1011.4 0.0
07/08:30pm 26.8 31.9 22.6 78 2.8 CALM 0 0 0 0 1011.1 1011.0 0.0
07/08:00pm 26.5 31.2 21.9 76 3.1 CALM 0 0 0 0 1010.5 1010.4 0.0
07/07:30pm 27.4 31.3 22.6 75 3.3 NE 6 11 3 6 1010.5 1010.4 0.0
07/07:00pm 27.7 31.3 22.4 73 3.6 NE 7 13 4 7 1010.3 1010.2 0.0
07/06:30pm 28.1 30.7 22.6 72 3.7 ENE 13 19 7 10 1009.9 1009.8 0.0
07/06:00pm 28.7 30.8 22.4 68 4.3 ENE 15 22 8 12 1009.8 1009.7 0.0
07/05:30pm 29.3 30.6 22.3 66 4.7 ENE 19 26 10 14 1009.5 1009.4 0.0
07/05:00pm 29.6 31.2 22.1 64 5.1 ENE 17 24 9 13 1009.5 1009.4 0.0
07/04:30pm 30.7 31.9 21.5 58 6.2 E 17 26 9 14 1009.1 1009.0 0.0
07/04:00pm 30.9 31.0 19.9 52 7.3 ENE 19 28 10 15 1008.8 1008.7 0.0
07/03:30pm 31.0 31.1 20.3 53 7.1 ENE 20 28 11 15 1008.9 1008.8 0.0
07/03:00pm 31.4 31.5 20.4 52 7.3 E 20 28 11 15 1009.1 1009.0 0.0
07/02:30pm 32.4 32.7 20.3 48 8.0 E 19 28 10 15 1009.4 1009.3 0.0
07/02:00pm 32.2 31.7 17.7 42 9.3 ENE 17 24 9 13 1009.6 1009.5 0.0
07/01:30pm 32.4 32.1 19.6 46 8.4 E 20 26 11 14 1010.1 1010.0 0.0
07/01:00pm 32.7 32.3 18.1 42 9.4 E 17 28 9 15 1010.3 1010.2 0.0

Other formats

Comma delimited format used in spreadsheet applications
http://www.bom.gov.au/fwo/IDQ60801/IDQ60801.94186.axf

JavaScript Object Notation format (JSON) in row-major order
http://www.bom.gov.au/fwo/IDQ60801/IDQ60801.94186.json

Data quality

Most of these data are generated automatically and are frequently updated. Quality checks on data are not normally performed. It is possible for incorrect values to appear. Refer to information at About Latest Weather Observations and please check the disclaimer before using these data.